Time;durP1;ratioP1;P1;durP2;ratioP2;P2;SDS_P1;SDS_P2;PMS_P1;PMS_P2;Temp;Humidity;BMP_temperature;BMP_pressure;BME280_temperature;BME280_humidity;BME280_pressure;Samples;Min_cycle;Max_cycle;Signal;HPM_P1;HPM_P2
2021/12/14 00:01:08;;;;;;;4.72;2.85;;;8.40;99.90;;;;;;5015864;28;20509;-76
2021/12/14 00:03:35;;;;;;;7.13;4.32;;;8.40;99.90;;;;;;5015288;28;20470;-79
2021/12/14 00:06:03;;;;;;;8.65;4.32;;;8.40;99.90;;;;;;5015122;28;20029;-80
2021/12/14 00:08:35;;;;;;;7.60;4.97;;;8.40;99.90;;;;;;5015340;28;20033;-77
2021/12/14 00:16:07;;;;;;;10.02;5.90;;;8.40;99.90;;;;;;5015563;28;20029;-79
2021/12/14 00:18:34;;;;;;;6.70;4.90;;;8.40;99.90;;;;;;5015270;28;20022;-77
2021/12/14 00:21:06;;;;;;;7.50;4.70;;;8.40;99.90;;;;;;5015624;28;20058;-80
2021/12/14 00:26:18;;;;;;;12.82;5.72;;;8.30;99.90;;;;;;5019414;28;19912;-79
2021/12/14 00:28:45;;;;;;;8.95;4.95;;;8.30;99.90;;;;;;5019822;28;20470;-75
2021/12/14 00:31:15;;;;;;;7.72;5.00;;;8.30;99.90;;;;;;5015824;28;20073;-80
2021/12/14 00:33:43;;;;;;;10.35;6.28;;;8.30;99.90;;;;;;5014943;28;20037;-79
2021/12/14 00:36:10;;;;;;;11.88;6.25;;;8.30;99.90;;;;;;5015425;28;20477;-74
2021/12/14 00:38:38;;;;;;;8.57;5.78;;;8.30;99.90;;;;;;5014974;28;20013;-78
2021/12/14 00:41:15;;;;;;;15.32;7.05;;;8.30;99.90;;;;;;5015190;28;20026;-80
2021/12/14 00:43:42;;;;;;;10.82;6.65;;;8.30;99.90;;;;;;5014534;28;20070;-78
2021/12/14 00:46:08;;;;;;;8.75;5.38;;;8.30;99.90;;;;;;5014557;28;20470;-79
2021/12/14 00:48:34;;;;;;;8.07;5.65;;;8.30;99.90;;;;;;5014845;28;20022;-78
2021/12/14 00:51:01;;;;;;;10.00;6.43;;;8.30;99.90;;;;;;5019682;28;20462;-79
2021/12/14 00:53:28;;;;;;;10.77;6.60;;;8.20;99.90;;;;;;5034499;28;20446;-76
2021/12/14 00:55:56;;;;;;;9.43;6.15;;;8.20;99.90;;;;;;5034337;28;20059;-78
2021/12/14 00:58:23;;;;;;;11.18;6.82;;;8.20;99.90;;;;;;5032540;28;20071;-75
2021/12/14 01:00:59;;;;;;;11.55;6.65;;;8.20;99.90;;;;;;5032758;28;20116;-73
2021/12/14 01:03:28;;;;;;;20.20;10.60;;;8.10;99.90;;;;;;5033001;28;20025;-78
2021/12/14 01:05:54;;;;;;;15.10;7.10;;;8.10;99.90;;;;;;5033929;28;20025;-79
2021/12/14 01:08:23;;;;;;;12.35;7.28;;;8.10;99.90;;;;;;5033821;28;20068;-79
2021/12/14 01:11:11;;;;;;;13.98;6.70;;;8.00;99.90;;;;;;5033817;28;20428;-76
2021/12/14 01:13:43;;;;;;;11.18;6.03;;;8.00;99.90;;;;;;5017130;28;20069;-73
2021/12/14 01:16:30;;;;;;;9.15;5.93;;;8.00;99.90;;;;;;5014299;28;20371;-75
2021/12/14 01:19:13;;;;;;;8.48;5.63;;;8.00;99.90;;;;;;5012837;28;20088;-75
2021/12/14 01:22:11;;;;;;;12.30;6.25;;;7.90;99.90;;;;;;5012559;28;20029;-75
2021/12/14 01:27:07;;;;;;;12.15;6.20;;;7.90;99.90;;;;;;5014237;28;20113;-77
2021/12/14 01:29:33;;;;;;;8.88;6.45;;;7.90;99.90;;;;;;5014067;28;20101;-73
2021/12/14 01:32:01;;;;;;;14.05;7.40;;;7.90;99.90;;;;;;5013354;28;20109;-80
2021/12/14 01:34:31;;;;;;;12.90;6.97;;;7.90;99.90;;;;;;5012817;28;20022;-79
2021/12/14 01:37:01;;;;;;;10.50;6.60;;;7.90;99.90;;;;;;5014172;28;20453;-79
2021/12/14 01:42:24;;;;;;;10.73;6.40;;;7.90;99.90;;;;;;5016349;28;20033;-76
2021/12/14 01:44:53;;;;;;;13.85;7.65;;;7.90;99.90;;;;;;5031010;28;20033;-78
2021/12/14 01:47:26;;;;;;;11.10;7.28;;;7.90;99.90;;;;;;5033264;28;20029;-78
2021/12/14 01:49:52;;;;;;;13.00;6.95;;;7.90;99.90;;;;;;5033538;28;20029;-80
2021/12/14 01:52:25;;;;;;;11.95;6.93;;;7.90;99.90;;;;;;5033156;28;20095;-77
2021/12/14 01:54:55;;;;;;;15.70;7.45;;;7.90;99.90;;;;;;5031775;28;20025;-79
2021/12/14 01:57:24;;;;;;;10.90;6.60;;;7.90;99.90;;;;;;5032927;28;20104;-78
2021/12/14 01:59:54;;;;;;;13.55;7.20;;;7.90;99.90;;;;;;5033581;28;20025;-79
2021/12/14 02:02:40;;;;;;;9.85;7.05;;;8.00;99.90;;;;;;5033098;28;20029;-80
2021/12/14 02:05:17;;;;;;;16.05;7.55;;;7.90;99.90;;;;;;5032873;28;20482;-76
2021/12/14 02:07:43;;;;;;;10.75;5.90;;;8.00;99.90;;;;;;5031780;28;20028;-78
2021/12/14 02:10:14;;;;;;;9.52;5.80;;;7.90;99.90;;;;;;5029107;28;20042;-76
2021/12/14 02:12:43;;;;;;;9.60;5.80;;;7.90;99.90;;;;;;5013403;28;20062;-79
2021/12/14 02:15:18;;;;;;;12.10;6.55;;;7.90;99.90;;;;;;5013452;28;20558;-76
2021/12/14 02:17:45;;;;;;;8.88;6.13;;;7.90;99.90;;;;;;5013404;28;20382;-79
2021/12/14 02:20:12;;;;;;;12.23;6.28;;;7.80;99.90;;;;;;5012174;28;20022;-79
2021/12/14 02:22:38;;;;;;;9.30;6.07;;;7.80;99.90;;;;;;5013509;28;20041;-80
2021/12/14 02:25:06;;;;;;;12.80;7.43;;;7.70;99.90;;;;;;5013046;28;20018;-78
2021/12/14 02:27:42;;;;;;;12.55;7.32;;;7.60;99.90;;;;;;5012557;28;20437;-79
2021/12/14 02:30:15;;;;;;;9.27;5.95;;;7.60;99.90;;;;;;5012975;28;20150;-80
2021/12/14 02:32:40;;;;;;;9.02;5.68;;;7.60;99.90;;;;;;5013037;28;20040;-79
2021/12/14 02:35:10;;;;;;;7.38;5.43;;;7.60;99.90;;;;;;5012941;28;20104;-79
2021/12/14 02:37:47;;;;;;;10.25;5.65;;;7.60;99.90;;;;;;5011308;28;20156;-80
2021/12/14 02:40:20;;;;;;;8.35;5.60;;;7.60;99.90;;;;;;5014596;28;20084;-76
2021/12/14 02:42:49;;;;;;;15.50;6.18;;;7.60;99.90;;;;;;5030810;28;20437;-79
2021/12/14 02:45:15;;;;;;;9.45;5.85;;;7.60;99.90;;;;;;5034825;28;20017;-79
2021/12/14 02:47:41;;;;;;;11.95;6.55;;;7.50;99.90;;;;;;5034658;28;20662;-76
2021/12/14 02:50:08;;;;;;;9.48;6.07;;;7.50;99.90;;;;;;5034822;28;20079;-72
2021/12/14 02:52:36;;;;;;;8.73;5.90;;;7.40;99.90;;;;;;5035583;28;20081;-79
2021/12/14 02:55:18;;;;;;;9.27;5.57;;;7.40;99.90;;;;;;5036459;28;20031;-78
2021/12/14 02:57:51;;;;;;;7.63;5.13;;;7.30;99.90;;;;;;5036323;28;20026;-77
2021/12/14 03:00:26;;;;;;;12.50;5.93;;;7.30;99.90;;;;;;5036323;28;20030;-74
2021/12/14 03:02:56;;;;;;;10.40;4.88;;;7.20;99.90;;;;;;5036162;28;20429;-80
2021/12/14 03:05:26;;;;;;;8.57;5.32;;;7.10;99.90;;;;;;5036264;28;20017;-74
2021/12/14 03:08:12;;;;;;;7.03;4.80;;;7.00;99.90;;;;;;5036432;28;20412;-74
2021/12/14 03:11:09;;;;;;;9.77;5.38;;;6.90;99.90;;;;;;5015964;28;20037;-78
2021/12/14 03:13:36;;;;;;;10.27;5.22;;;6.80;99.90;;;;;;5016553;28;20030;-80
2021/12/14 03:16:08;;;;;;;7.15;4.93;;;6.80;99.90;;;;;;5016574;28;20028;-78
2021/12/14 03:18:40;;;;;;;15.25;5.60;;;6.70;99.90;;;;;;5016695;28;20386;-78
2021/12/14 03:21:08;;;;;;;;;;;6.70;99.90;;;;;;5016655;28;20080;-75
2021/12/14 03:23:56;;;;;;;9.38;5.35;;;6.60;99.90;;;;;;5016468;28;20404;-80
2021/12/14 03:26:26;;;;;;;11.25;5.38;;;6.60;99.90;;;;;;5026884;28;20025;-81
2021/12/14 03:28:56;;;;;;;12.25;5.20;;;6.60;99.90;;;;;;5034891;28;20390;-80
2021/12/14 03:31:31;;;;;;;9.35;5.72;;;6.50;99.90;;;;;;5035970;28;20056;-72
2021/12/14 03:34:08;;;;;;;6.80;4.53;;;6.50;99.90;;;;;;5035859;28;20492;-80
2021/12/14 03:36:41;;;;;;;7.22;4.40;;;6.50;99.90;;;;;;5036062;28;20033;-80
2021/12/14 03:39:09;;;;;;;6.93;4.47;;;6.50;99.90;;;;;;5025849;28;20026;-80
2021/12/14 03:42:07;;;;;;;7.72;4.00;;;6.50;99.90;;;;;;5015952;28;20029;-79
2021/12/14 03:44:40;;;;;;;6.82;4.22;;;6.40;99.90;;;;;;5015824;28;20076;-80
2021/12/14 03:47:09;;;;;;;5.40;3.20;;;6.40;99.90;;;;;;5016030;28;20470;-78
2021/12/14 03:49:39;;;;;;;4.90;3.20;;;6.40;99.90;;;;;;5015939;28;20025;-79
2021/12/14 03:52:10;;;;;;;5.60;4.03;;;6.40;99.90;;;;;;5015597;28;20038;-80
2021/12/14 03:54:36;;;;;;;6.05;3.60;;;6.40;99.90;;;;;;5015228;28;20524;-81
2021/12/14 03:57:02;;;;;;;7.72;4.55;;;6.40;99.90;;;;;;5015433;28;20033;-79
2021/12/14 03:59:30;;;;;;;6.85;4.20;;;6.50;99.90;;;;;;5018842;28;20025;-72
2021/12/14 04:01:58;;;;;;;6.57;4.15;;;6.40;99.90;;;;;;5035193;28;20033;-79
2021/12/14 04:04:36;;;;;;;7.15;3.95;;;6.40;99.90;;;;;;5035269;28;20033;-79
2021/12/14 04:07:07;;;;;;;5.80;3.53;;;6.40;99.90;;;;;;5035118;28;20022;-80
2021/12/14 04:09:35;;;;;;;5.10;4.03;;;6.40;99.90;;;;;;5035342;28;20104;-78
2021/12/14 04:12:05;;;;;;;4.75;3.63;;;6.40;99.90;;;;;;5033975;28;20041;-79
2021/12/14 04:14:31;;;;;;;6.70;3.95;;;6.40;99.90;;;;;;5034856;28;20030;-80
2021/12/14 04:16:59;;;;;;;7.47;3.53;;;6.40;99.90;;;;;;5035209;28;20131;-80
2021/12/14 04:19:29;;;;;;;6.05;3.75;;;6.40;99.90;;;;;;5035464;28;20029;-74
2021/12/14 04:21:59;;;;;;;6.90;3.97;;;6.30;99.90;;;;;;5035226;28;20540;-78
2021/12/14 04:24:29;;;;;;;4.95;3.28;;;6.30;99.90;;;;;;5035034;28;20037;-78
2021/12/14 04:26:57;;;;;;;6.72;4.18;;;6.30;99.90;;;;;;5016854;28;20026;-78
2021/12/14 04:29:23;;;;;;;4.20;3.22;;;6.30;99.90;;;;;;5015205;28;20109;-77
2021/12/14 04:31:50;;;;;;;8.70;3.80;;;6.30;99.90;;;;;;5014998;28;20116;-78
2021/12/14 04:34:17;;;;;;;5.38;3.65;;;6.30;99.90;;;;;;5015750;28;20018;-78
2021/12/14 04:36:46;;;;;;;5.82;3.35;;;6.30;99.90;;;;;;5015323;28;20022;-80
2021/12/14 04:53:15;;;;;;;8.80;3.60;;;6.40;99.90;;;;;;5014302;28;20111;-77
2021/12/14 04:55:44;;;;;;;6.25;3.80;;;6.40;99.90;;;;;;5014945;28;20034;-79
2021/12/14 04:58:12;;;;;;;4.43;3.20;;;6.30;99.90;;;;;;5013268;28;20125;-79
2021/12/14 05:00:49;;;;;;;5.90;3.80;;;6.30;99.90;;;;;;5014357;28;20494;-80
2021/12/14 05:03:22;;;;;;;3.78;2.85;;;6.40;99.90;;;;;;5013467;28;20037;-75
2021/12/14 05:05:51;;;;;;;4.82;2.90;;;6.40;99.90;;;;;;5014722;28;20021;-73
2021/12/14 05:11:05;;;;;;;5.60;3.10;;;6.50;99.90;;;;;;5013964;28;20052;-80
2021/12/14 05:13:40;;;;;;;4.13;3.22;;;6.60;99.90;;;;;;5014496;28;20355;-79
2021/12/14 05:16:08;;;;;;;5.47;3.45;;;6.60;99.90;;;;;;5014480;28;20364;-79
2021/12/14 05:18:34;;;;;;;4.35;3.10;;;6.60;99.90;;;;;;5014430;28;20382;-77
2021/12/14 05:21:00;;;;;;;5.85;3.42;;;6.50;99.90;;;;;;5014162;28;20033;-80
2021/12/14 05:23:33;;;;;;;4.60;3.42;;;6.50;99.90;;;;;;5014165;28;20037;-80
2021/12/14 05:26:01;;;;;;;4.50;3.40;;;6.50;99.90;;;;;;5023147;28;20500;-79
2021/12/14 05:28:28;;;;;;;4.53;3.50;;;6.50;99.90;;;;;;5033913;28;20036;-78
2021/12/14 05:30:57;;;;;;;6.13;3.80;;;6.50;99.90;;;;;;5033894;28;20052;-77
2021/12/14 05:33:29;;;;;;;6.03;3.22;;;6.60;99.90;;;;;;5033616;28;20017;-80
2021/12/14 05:35:59;;;;;;;7.35;3.47;;;6.50;99.90;;;;;;5032973;28;20036;-79
2021/12/14 05:38:44;;;;;;;6.32;3.45;;;6.50;99.90;;;;;;5014184;28;20429;-78
2021/12/14 05:43:05;;;;;;;5.38;3.72;;;6.50;99.90;;;;;;5014323;28;20022;-80
2021/12/14 05:43:58;;;;;;;5.80;3.20;;;6.50;99.90;;;;;;5012470;28;20026;-79
2021/12/14 05:46:24;;;;;;;6.40;3.33;;;6.50;99.90;;;;;;5013588;28;20084;-80
2021/12/14 05:48:57;;;;;;;6.60;3.00;;;6.50;99.90;;;;;;5013981;28;20034;-79
2021/12/14 05:51:23;;;;;;;5.28;3.35;;;6.50;99.90;;;;;;5029021;28;20037;-78
2021/12/14 05:53:49;;;;;;;6.93;3.95;;;6.50;99.90;;;;;;5013524;28;20433;-77
2021/12/14 05:56:24;;;;;;;16.90;4.28;;;6.50;99.90;;;;;;5014461;28;20445;-79
2021/12/14 05:58:52;;;;;;;9.57;4.07;;;6.50;99.90;;;;;;5013491;28;20029;-80
2021/12/14 06:01:21;;;;;;;6.60;3.83;;;6.40;99.90;;;;;;5013592;28;20077;-80
2021/12/14 06:03:53;;;;;;;5.53;3.55;;;6.40;99.90;;;;;;5013630;28;20084;-78
2021/12/14 06:06:27;;;;;;;9.45;3.90;;;6.40;99.90;;;;;;5013535;28;20022;-79
2021/12/14 06:09:02;;;;;;;5.90;4.05;;;6.40;99.90;;;;;;5013229;28;20033;-78
2021/12/14 06:11:28;;;;;;;6.95;4.45;;;6.30;99.90;;;;;;5013394;28;20062;-79
2021/12/14 06:13:54;;;;;;;6.15;4.15;;;6.30;99.90;;;;;;5013255;28;20049;-80
2021/12/14 06:16:26;;;;;;;10.15;4.35;;;6.30;99.90;;;;;;5013177;28;20026;-78
2021/12/14 06:18:54;;;;;;;6.00;4.22;;;6.30;99.90;;;;;;5012898;28;20026;-81
2021/12/14 06:21:32;;;;;;;6.65;4.05;;;6.30;99.90;;;;;;5013275;28;20017;-79
2021/12/14 06:24:06;;;;;;;6.38;3.78;;;6.40;99.90;;;;;;5011752;28;20048;-80
2021/12/14 06:26:48;;;;;;;6.75;4.55;;;6.40;99.90;;;;;;5026230;28;20025;-81
2021/12/14 06:29:24;;;;;;;9.40;4.43;;;6.40;99.90;;;;;;5032597;28;20410;-80
2021/12/14 06:31:51;;;;;;;5.07;4.00;;;6.40;99.90;;;;;;5032149;28;20065;-81
2021/12/14 06:34:22;;;;;;;7.38;3.88;;;6.40;99.90;;;;;;5033052;28;20021;-78
2021/12/14 06:37:03;;;;;;;5.88;3.78;;;6.40;99.90;;;;;;5032696;28;20083;-74
2021/12/14 06:39:29;;;;;;;7.25;4.13;;;6.40;99.90;;;;;;5018290;28;20099;-75
2021/12/14 06:42:06;;;;;;;6.90;4.10;;;6.50;99.90;;;;;;5012735;28;20176;-79
2021/12/14 06:44:32;;;;;;;6.97;3.47;;;6.50;99.90;;;;;;5012549;28;20387;-77
2021/12/14 06:46:58;;;;;;;7.57;3.85;;;6.50;99.90;;;;;;5012143;28;20094;-77
2021/12/14 06:49:24;;;;;;;11.25;4.50;;;6.50;99.90;;;;;;5023636;28;20032;-79
2021/12/14 06:51:53;;;;;;;8.98;3.88;;;6.60;99.90;;;;;;5031034;28;20037;-78
2021/12/14 06:54:25;;;;;;;11.13;4.90;;;6.60;99.90;;;;;;5032194;28;20048;-78
2021/12/14 06:56:56;;;;;;;9.80;4.05;;;6.60;99.90;;;;;;5030395;28;20022;-75
2021/12/14 06:59:22;;;;;;;6.22;4.63;;;6.70;99.90;;;;;;5032774;28;20060;-74
2021/12/14 07:02:00;;;;;;;11.18;5.97;;;6.70;99.90;;;;;;5032798;28;20049;-77
2021/12/14 07:04:34;;;;;;;17.15;5.45;;;6.70;99.90;;;;;;5032614;28;20021;-77
2021/12/14 07:07:07;;;;;;;13.63;6.40;;;6.70;99.90;;;;;;5029982;28;20025;-74
2021/12/14 07:09:38;;;;;;;28.42;8.32;;;6.90;99.90;;;;;;5030720;28;20022;-76
2021/12/14 07:12:09;;;;;;;22.88;7.45;;;7.20;99.90;;;;;;5031526;28;20095;-77
2021/12/14 07:14:53;;;;;;;28.73;6.10;;;7.40;99.90;;;;;;5032565;28;20033;-79
2021/12/14 07:17:31;;;;;;;22.83;5.60;;;7.60;99.90;;;;;;5031572;28;20026;-74
2021/12/14 07:20:15;;;;;;;14.50;5.80;;;7.90;99.90;;;;;;5017056;28;20100;-75
2021/12/14 07:22:42;;;;;;;25.02;5.95;;;8.10;99.90;;;;;;5012274;28;20076;-76
2021/12/14 07:25:27;;;;;;;20.73;6.47;;;8.50;99.90;;;;;;5010185;28;20030;-78
2021/12/14 07:28:08;;;;;;;23.42;6.65;;;8.70;99.90;;;;;;5012289;28;20102;-77
2021/12/14 07:30:39;;;;;;;16.97;6.50;;;8.90;99.90;;;;;;5014060;28;20036;-77
2021/12/14 07:33:12;;;;;;;15.15;6.13;;;9.20;99.90;;;;;;5016271;28;20283;-75
2021/12/14 07:35:39;;;;;;;21.08;6.70;;;9.50;99.90;;;;;;5016583;28;20467;-75
2021/12/14 07:38:39;;;;;;;15.98;5.78;;;9.90;99.90;;;;;;5016137;28;20034;-76
2021/12/14 07:41:23;;;;;;;14.68;5.82;;;10.30;99.90;;;;;;5015900;28;20382;-79
2021/12/14 07:44:11;;;;;;;13.45;5.80;;;10.70;99.90;;;;;;5015435;28;20026;-76
2021/12/14 07:46:45;;;;;;;16.00;5.32;;;11.20;99.90;;;;;;5015602;28;20109;-77
2021/12/14 07:49:26;;;;;;;5.22;3.47;;;11.60;99.90;;;;;;5024495;28;20441;-76
2021/12/14 07:52:08;;;;;;;9.63;3.65;;;12.00;99.90;;;;;;5035490;28;20045;-74
2021/12/14 07:54:58;;;;;;;13.20;4.07;;;12.50;99.90;;;;;;5036033;28;20034;-74
2021/12/14 07:57:28;;;;;;;9.32;4.78;;;13.00;99.90;;;;;;5035500;28;20038;-75
2021/12/14 07:59:58;;;;;;;21.52;5.45;;;13.40;99.90;;;;;;5035421;28;20181;-76
2021/12/14 08:02:37;;;;;;;8.32;3.92;;;13.70;99.90;;;;;;5035518;28;20052;-78
2021/12/14 08:05:11;;;;;;;9.55;4.35;;;14.00;99.90;;;;;;5035081;28;20561;-77
2021/12/14 08:08:00;;;;;;;52.45;8.73;;;14.40;99.90;;;;;;5035094;28;20083;-73
2021/12/14 08:10:32;;;;;;;28.67;8.20;;;14.80;99.90;;;;;;5036698;28;20112;-79
2021/12/14 08:13:11;;;;;;;25.58;6.47;;;14.80;99.90;;;;;;5021421;28;20033;-77
2021/12/14 08:15:57;;;;;;;18.83;4.82;;;15.30;99.90;;;;;;5015060;28;20536;-79
2021/12/14 08:18:22;;;;;;;11.35;4.35;;;15.90;99.90;;;;;;5018540;28;20034;-77
2021/12/14 08:20:48;;;;;;;11.48;5.03;;;16.10;99.90;;;;;;5028595;28;20049;-74
2021/12/14 08:23:37;;;;;;;18.33;6.35;;;16.30;99.90;;;;;;5015177;28;20060;-72
2021/12/14 08:26:17;;;;;;;19.80;7.07;;;16.20;99.90;;;;;;5004951;28;20055;-77
2021/12/14 08:28:49;;;;;;;17.63;5.85;;;15.80;99.90;;;;;;5016052;28;20040;-76
2021/12/14 08:31:15;;;;;;;17.35;5.72;;;15.50;99.90;;;;;;5028934;28;20532;-78
2021/12/14 08:33:41;;;;;;;9.60;4.40;;;16.00;99.90;;;;;;5034862;28;20029;-78
2021/12/14 08:36:11;;;;;;;14.50;5.25;;;16.60;99.90;;;;;;5034921;28;20558;-73
2021/12/14 08:38:37;;;;;;;13.27;5.57;;;17.10;99.90;;;;;;5034941;28;20033;-77
2021/12/14 08:41:14;;;;;;;11.40;5.78;;;17.40;99.90;;;;;;5034818;28;20038;-79
2021/12/14 08:43:47;;;;;;;16.20;5.80;;;18.00;99.90;;;;;;5032329;28;20026;-76
2021/12/14 08:46:22;;;;;;;22.08;5.70;;;18.60;99.90;;;;;;5020930;28;20032;-78
2021/12/14 08:48:52;;;;;;;15.38;4.82;;;19.50;99.90;;;;;;5014327;28;20030;-77
2021/12/14 08:51:25;;;;;;;14.35;4.85;;;20.40;99.90;;;;;;5031674;28;20025;-75
2021/12/14 08:54:06;;;;;;;10.10;4.95;;;20.80;99.20;;;;;;5031597;28;20048;-78
2021/12/14 08:56:36;;;;;;;15.57;5.73;;;20.80;98.00;;;;;;5014808;28;20433;-79
2021/12/14 08:59:02;;;;;;;12.38;5.45;;;20.80;97.40;;;;;;5012428;28;20410;-77
2021/12/14 09:01:30;;;;;;;17.30;6.30;;;20.90;97.10;;;;;;5030921;28;20025;-80
2021/12/14 09:04:11;;;;;;;15.27;6.38;;;21.20;96.40;;;;;;5032383;28;20083;-75
2021/12/14 09:06:40;;;;;;;17.67;6.57;;;21.30;96.00;;;;;;5033634;28;20033;-78
2021/12/14 09:09:10;;;;;;;8.70;4.53;;;21.20;95.60;;;;;;5033503;28;20025;-79
2021/12/14 09:11:38;;;;;;;7.80;4.05;;;20.90;95.20;;;;;;5033434;28;20044;-76
2021/12/14 09:14:09;;;;;;;15.07;4.80;;;20.50;94.50;;;;;;5033119;28;20022;-79
2021/12/14 09:16:36;;;;;;;13.00;5.65;;;20.20;95.00;;;;;;5033317;28;20048;-79
2021/12/14 09:19:13;;;;;;;7.65;3.60;;;19.90;95.60;;;;;;5033111;28;20026;-80
2021/12/14 09:21:43;;;;;;;8.10;4.05;;;19.70;94.80;;;;;;5032901;28;20113;-78
2021/12/14 09:24:15;;;;;;;5.97;4.10;;;19.40;95.50;;;;;;5032307;28;20013;-76
2021/12/14 09:26:43;;;;;;;;;;;19.20;95.90;;;;;;5021549;28;20025;-77
2021/12/14 09:29:13;;;;;;;11.68;3.83;;;19.00;96.20;;;;;;5031863;28;20329;-78
2021/12/14 09:31:40;;;;;;;13.13;4.20;;;18.80;96.40;;;;;;5015088;28;20040;-78
2021/12/14 09:34:09;;;;;;;17.48;5.95;;;18.80;96.30;;;;;;5011979;28;20022;-77
2021/12/14 09:36:36;;;;;;;19.48;6.78;;;18.70;96.70;;;;;;5024697;28;20053;-78
2021/12/14 09:39:14;;;;;;;14.40;6.32;;;18.70;96.70;;;;;;5016282;28;20433;-80
2021/12/14 09:41:41;;;;;;;13.43;3.80;;;18.60;96.50;;;;;;5015533;28;20064;-79
2021/12/14 09:44:11;;;;;;;13.15;4.60;;;18.10;96.40;;;;;;5025997;28;20084;-77
2021/12/14 09:46:38;;;;;;;16.02;4.78;;;17.80;97.40;;;;;;5027753;28;20423;-78
2021/12/14 09:49:07;;;;;;;13.23;4.40;;;18.00;97.30;;;;;;5013860;28;20030;-77
2021/12/14 09:51:37;;;;;;;10.23;4.07;;;18.20;96.80;;;;;;5021119;28;20056;-78
2021/12/14 09:54:06;;;;;;;7.05;3.85;;;18.40;96.50;;;;;;5014488;28;20049;-77
2021/12/14 09:56:39;;;;;;;9.07;4.47;;;18.60;96.10;;;;;;5022355;28;20417;-78
2021/12/14 09:59:07;;;;;;;6.28;3.78;;;18.60;96.30;;;;;;5030831;28;20025;-77
2021/12/14 10:01:50;;;;;;;9.13;4.03;;;18.80;95.90;;;;;;5032738;28;20040;-80
2021/12/14 10:04:22;;;;;;;7.50;3.85;;;19.00;95.70;;;;;;5033125;28;20552;-77
2021/12/14 10:06:49;;;;;;;12.02;4.22;;;19.10;95.40;;;;;;5031007;28;20121;-80
2021/12/14 10:09:20;;;;;;;7.60;4.40;;;19.30;95.40;;;;;;5030252;28;20036;-79
2021/12/14 10:14:28;;;;;;;9.02;5.07;;;19.30;95.50;;;;;;5031890;28;20115;-77
2021/12/14 10:16:54;;;;;;;7.32;4.53;;;19.60;95.40;;;;;;5016413;28;20030;-78
2021/12/14 10:19:25;;;;;;;12.48;5.25;;;19.90;94.80;;;;;;5030225;28;20021;-74
2021/12/14 10:21:59;;;;;;;8.87;4.57;;;20.00;94.50;;;;;;5031054;28;20038;-80
2021/12/14 10:24:25;;;;;;;9.65;4.63;;;20.20;94.40;;;;;;5032144;28;20334;-77
2021/12/14 10:26:58;;;;;;;7.80;4.50;;;20.30;94.30;;;;;;5031968;28;20087;-78
2021/12/14 10:29:26;;;;;;;8.45;4.90;;;20.50;93.90;;;;;;5032233;28;20056;-81
2021/12/14 10:32:00;;;;;;;12.38;5.20;;;20.80;93.80;;;;;;5032420;28;20029;-76
2021/12/14 10:34:28;;;;;;;13.40;4.53;;;21.10;93.70;;;;;;5031122;28;20478;-80
2021/12/14 10:37:09;;;;;;;11.02;4.78;;;21.30;93.00;;;;;;5032254;28;20080;-76
2021/12/14 10:42:39;;;;;;;9.75;5.45;;;21.50;93.10;;;;;;5031839;28;20030;-75
2021/12/14 10:45:28;;;;;;;13.10;5.40;;;21.40;93.50;;;;;;4967825;28;20491;-80
2021/12/14 10:47:55;;;;;;;16.55;6.05;;;21.60;93.60;;;;;;4969211;28;20035;-75
2021/12/14 10:50:25;;;;;;;16.55;5.75;;;21.40;94.20;;;;;;5001192;28;20053;-80
2021/12/14 10:52:51;;;;;;;14.40;6.45;;;21.40;94.40;;;;;;5030689;28;20064;-77
2021/12/14 10:55:31;;;;;;;10.98;6.30;;;21.10;94.70;;;;;;5027664;28;20068;-82
2021/12/14 10:57:58;;;;;;;19.17;6.45;;;21.10;95.00;;;;;;5013026;28;20030;-81
2021/12/14 11:00:33;;;;;;;11.98;6.18;;;21.20;95.10;;;;;;5013567;28;20025;-79
2021/12/14 11:03:12;;;;;;;17.92;6.40;;;21.20;95.30;;;;;;5032745;28;20537;-80
2021/12/14 11:05:41;;;;;;;15.43;6.13;;;21.10;95.30;;;;;;5033819;28;20029;-82
2021/12/14 11:08:32;;;;;;;11.40;5.78;;;21.10;95.90;;;;;;5036809;28;20014;-80
2021/12/14 11:10:58;;;;;;;9.43;6.22;;;21.20;96.90;;;;;;5035933;28;20030;-73
2021/12/14 11:13:23;;;;;;;10.73;6.22;;;20.90;97.50;;;;;;5036379;28;20128;-82
2021/12/14 11:15:54;;;;;;;9.55;6.43;;;20.70;97.70;;;;;;5035489;28;20021;-81
2021/12/14 11:18:26;;;;;;;13.15;7.38;;;20.50;98.10;;;;;;5035533;28;20029;-76
2021/12/14 11:21:03;;;;;;;14.60;7.50;;;20.40;98.00;;;;;;5016530;28;20367;-81
2021/12/14 11:23:35;;;;;;;13.23;6.80;;;20.30;97.90;;;;;;5027063;28;20021;-82
2021/12/14 11:26:15;;;;;;;16.58;6.70;;;20.30;97.70;;;;;;5035939;28;20032;-82
2021/12/14 11:28:48;;;;;;;11.60;6.55;;;20.10;97.70;;;;;;5034886;28;20121;-79
2021/12/14 11:31:31;;;;;;;10.02;6.47;;;20.00;97.40;;;;;;5034852;28;20040;-80
2021/12/14 11:34:02;;;;;;;14.85;7.15;;;19.70;98.00;;;;;;5035682;28;20036;-78
2021/12/14 11:36:38;;;;;;;12.32;6.72;;;19.60;98.40;;;;;;5036166;28;20025;-82
2021/12/14 11:39:18;;;;;;;17.02;7.07;;;19.50;98.30;;;;;;5032417;28;20040;-82
2021/12/14 11:41:47;;;;;;;11.13;6.82;;;19.20;98.50;;;;;;5035746;28;20466;-81
2021/12/14 11:44:30;;;;;;;9.43;6.35;;;19.00;98.70;;;;;;5035319;28;20473;-81
2021/12/14 11:47:40;;;;;;;11.00;6.30;;;18.50;98.60;;;;;;5034500;28;20029;-81
2021/12/14 11:50:01;;;;;;;17.05;6.65;;;18.30;98.90;;;;;;5034865;28;20362;-78
2021/12/14 11:52:52;;;;;;;12.82;6.20;;;17.90;99.20;;;;;;5034801;28;20045;-81
2021/12/14 11:55:32;;;;;;;15.30;7.03;;;17.50;99.70;;;;;;5035930;28;20029;-81
2021/12/14 11:58:06;;;;;;;14.75;7.10;;;17.20;99.90;;;;;;5036006;28;20460;-81
2021/12/14 12:00:34;;;;;;;13.88;6.63;;;17.00;99.90;;;;;;5035486;28;20021;-81
2021/12/14 12:03:18;;;;;;;11.23;6.68;;;16.90;99.90;;;;;;5033737;28;20478;-79
2021/12/14 12:05:59;;;;;;;14.10;6.25;;;16.60;99.90;;;;;;5015814;28;20105;-80
2021/12/14 12:11:11;;;;;;;23.33;10.43;;;16.10;99.90;;;;;;5015856;28;20040;-80
2021/12/14 12:13:40;;;;;;;17.58;6.43;;;15.90;99.90;;;;;;5030542;28;20025;-84
2021/12/14 12:16:18;;;;;;;18.38;6.95;;;15.70;99.90;;;;;;5034860;28;20028;-78
2021/12/14 12:19:13;;;;;;;21.85;7.85;;;15.50;99.90;;;;;;5035550;28;20528;-75
2021/12/14 12:21:39;;;;;;;11.05;6.57;;;15.40;99.90;;;;;;5034734;28;20041;-79
2021/12/14 12:24:25;;;;;;;11.85;7.00;;;15.40;99.90;;;;;;5032900;28;20032;-81
2021/12/14 12:26:51;;;;;;;15.55;7.80;;;15.20;99.90;;;;;;5036358;28;20033;-79
2021/12/14 12:29:25;;;;;;;11.00;6.28;;;15.20;99.90;;;;;;5036253;28;20030;-77
2021/12/14 12:31:59;;;;;;;11.15;7.35;;;15.10;99.90;;;;;;5038515;28;20037;-75
2021/12/14 12:34:35;;;;;;;14.98;7.88;;;15.00;99.90;;;;;;5044414;28;20040;-82
2021/12/14 12:37:00;;;;;;;13.90;8.27;;;14.80;99.90;;;;;;5036858;28;20055;-76
2021/12/14 12:39:29;;;;;;;12.52;7.43;;;14.80;99.90;;;;;;5037743;28;20378;-78
2021/12/14 12:42:01;;;;;;;12.80;6.68;;;14.70;99.90;;;;;;5033435;28;20537;-75
2021/12/14 12:44:34;;;;;;;14.95;7.28;;;14.60;99.90;;;;;;5033071;28;20053;-80
2021/12/14 12:47:07;;;;;;;13.57;7.35;;;14.60;99.90;;;;;;5033897;28;20112;-78
2021/12/14 12:49:36;;;;;;;13.75;7.72;;;14.40;99.90;;;;;;5033868;28;20105;-80
2021/12/14 12:52:10;;;;;;;12.88;7.47;;;14.40;99.90;;;;;;5033517;28;20041;-83
2021/12/14 12:54:42;;;;;;;13.70;7.75;;;14.30;99.90;;;;;;5034037;28;20527;-77
2021/12/14 12:57:22;;;;;;;16.08;8.32;;;14.20;99.90;;;;;;5032688;28;20029;-81
2021/12/14 13:00:32;;;;;;;14.73;7.03;;;14.20;99.90;;;;;;5033882;28;20025;-80
2021/12/14 13:03:09;;;;;;;13.70;7.68;;;14.10;99.90;;;;;;5034101;28;20068;-82
2021/12/14 13:05:54;;;;;;;12.70;7.43;;;14.00;99.90;;;;;;5034961;28;20021;-80
2021/12/14 13:08:25;;;;;;;11.70;7.22;;;13.90;99.90;;;;;;5034393;28;20056;-75
2021/12/14 13:11:12;;;;;;;13.73;6.83;;;13.90;99.90;;;;;;5033828;28;20037;-81
2021/12/14 13:13:48;;;;;;;22.33;8.82;;;13.90;99.90;;;;;;5015065;28;20694;-75
2021/12/14 13:16:32;;;;;;;16.52;6.40;;;13.80;99.90;;;;;;5016191;28;20022;-72
2021/12/14 13:19:11;;;;;;;13.23;6.38;;;13.80;99.90;;;;;;5019011;28;20036;-78
2021/12/14 13:21:59;;;;;;;9.10;5.43;;;13.70;99.90;;;;;;5029898;28;20029;-76
2021/12/14 13:24:34;;;;;;;11.57;6.60;;;13.60;99.90;;;;;;5031174;28;20057;-75
2021/12/14 13:27:08;;;;;;;14.13;6.28;;;13.60;99.90;;;;;;5027939;28;20025;-73
2021/12/14 13:30:05;;;;;;;13.23;5.82;;;13.50;99.90;;;;;;5024977;28;20504;-76
2021/12/14 13:32:40;;;;;;;13.35;6.13;;;13.40;99.90;;;;;;5037039;28;20030;-80
2021/12/14 13:35:08;;;;;;;10.93;5.95;;;13.40;99.90;;;;;;5034657;28;20121;-78
2021/12/14 13:37:43;;;;;;;26.42;6.07;;;13.30;99.90;;;;;;5035410;28;20028;-76
2021/12/14 13:40:31;;;;;;;16.15;5.88;;;13.20;99.90;;;;;;5034256;28;20096;-76
2021/12/14 13:43:22;;;;;;;16.65;5.90;;;13.10;99.90;;;;;;5033095;28;20025;-75
2021/12/14 13:45:58;;;;;;;18.98;7.15;;;13.10;99.90;;;;;;5033215;28;20025;-77
2021/12/14 13:48:27;;;;;;;19.83;7.10;;;13.00;99.90;;;;;;5031230;28;20088;-78
2021/12/14 13:51:21;;;;;;;24.13;7.32;;;13.00;99.90;;;;;;5031639;28;20028;-80
2021/12/14 13:53:50;;;;;;;15.85;7.18;;;13.00;99.90;;;;;;5030971;28;20139;-75
2021/12/14 13:56:24;;;;;;;13.82;7.88;;;13.00;99.90;;;;;;5031793;28;20037;-80